TimeCDT,TemperatureF,Dew PointF,Humidity,Sea Level PressureIn,VisibilityMPH,Wind Direction,Wind SpeedMPH,Gust SpeedMPH,PrecipitationIn,Events,Conditions,WindDirDegrees,DateUTC
12:15 AM,44.6,39.2,81,30.33,10.0,Calm,Calm,-,N/A,,Clear,0,2013-04-26 05:15:00
12:35 AM,44.6,39.2,81,30.33,10.0,Calm,Calm,-,N/A,,Clear,0,2013-04-26 05:35:00
12:55 AM,42.8,39.2,87,30.33,10.0,Calm,Calm,-,N/A,,Clear,0,2013-04-26 05:55:00
2:15 AM,44.6,41.0,87,30.32,10.0,Calm,Calm,-,N/A,,Clear,0,2013-04-26 07:15:00
2:55 AM,44.6,39.2,81,30.31,9.0,Calm,Calm,-,N/A,,Clear,0,2013-04-26 07:55:00
3:15 AM,44.6,39.2,81,30.30,10.0,Calm,Calm,-,N/A,,Clear,0,2013-04-26 08:15:00
3:35 AM,46.4,39.2,76,30.30,10.0,Calm,Calm,-,N/A,,Clear,0,2013-04-26 08:35:00
3:55 AM,44.6,39.2,81,30.31,10.0,Calm,Calm,-,N/A,,Clear,0,2013-04-26 08:55:00
4:15 AM,42.8,39.2,87,30.31,10.0,Calm,Calm,-,N/A,,Clear,0,2013-04-26 09:15:00
4:35 AM,44.6,39.2,81,30.32,9.0,Calm,Calm,-,N/A,,Clear,0,2013-04-26 09:35:00
4:55 AM,42.8,39.2,87,30.32,9.0,Calm,Calm,-,N/A,,Clear,0,2013-04-26 09:55:00
5:15 AM,42.8,39.2,87,30.32,9.0,Calm,Calm,-,N/A,,Clear,0,2013-04-26 10:15:00
5:35 AM,42.8,39.2,87,30.32,9.0,Calm,Calm,-,N/A,,Clear,0,2013-04-26 10:35:00
5:55 AM,41.0,39.2,93,30.33,8.0,Calm,Calm,-,N/A,,Clear,0,2013-04-26 10:55:00
6:15 AM,41.0,39.2,93,30.35,8.0,Calm,Calm,-,N/A,,Clear,0,2013-04-26 11:15:00
6:35 AM,41.0,39.2,93,30.35,7.0,Calm,Calm,-,N/A,,Clear,0,2013-04-26 11:35:00
6:55 AM,42.8,39.2,87,30.35,7.0,Calm,Calm,-,N/A,,Clear,0,2013-04-26 11:55:00
7:15 AM,46.4,39.2,76,30.36,8.0,SE,3.5,-,N/A,,Clear,140,2013-04-26 12:15:00
7:35 AM,50.0,37.4,62,30.35,9.0,ESE,5.8,-,N/A,,Clear,120,2013-04-26 12:35:00
7:55 AM,53.6,37.4,54,30.34,7.0,SE,3.5,-,N/A,,Clear,130,2013-04-26 12:55:00
8:15 AM,55.4,37.4,51,30.34,8.0,SE,3.5,-,N/A,,Clear,130,2013-04-26 13:15:00
8:35 AM,57.2,37.4,48,30.36,7.0,SE,4.6,-,N/A,,Clear,130,2013-04-26 13:35:00
8:55 AM,57.2,35.6,44,30.37,7.0,ESE,3.5,-,N/A,,Partly Cloudy,120,2013-04-26 13:55:00
9:15 AM,57.2,35.6,44,30.37,9.0,ESE,4.6,-,N/A,,Partly Cloudy,120,2013-04-26 14:15:00
9:35 AM,60.8,37.4,42,30.37,8.0,East,10.4,-,N/A,,Clear,80,2013-04-26 14:35:00
9:55 AM,62.6,35.6,37,30.36,10.0,East,9.2,19.6,N/A,,Clear,90,2013-04-26 14:55:00
10:15 AM,62.6,35.6,37,30.37,8.0,Calm,Calm,-,N/A,,Clear,0,2013-04-26 15:15:00
10:55 AM,66.2,37.4,35,30.35,8.0,ESE,6.9,-,N/A,,Clear,120,2013-04-26 15:55:00
11:15 AM,66.2,37.4,35,30.34,8.0,ESE,8.1,-,N/A,,Partly Cloudy,110,2013-04-26 16:15:00
11:35 AM,68.0,35.6,30,30.32,8.0,SE,8.1,-,N/A,,Partly Cloudy,130,2013-04-26 16:35:00
11:55 AM,68.0,35.6,30,30.31,7.0,SE,5.8,-,N/A,,Partly Cloudy,140,2013-04-26 16:55:00
12:15 PM,68.0,37.4,33,30.31,9.0,East,9.2,16.1,N/A,,Partly Cloudy,100,2013-04-26 17:15:00
12:35 PM,68.0,35.6,30,30.32,8.0,ESE,6.9,-,N/A,,Partly Cloudy,120,2013-04-26 17:35:00
12:55 PM,69.8,37.4,31,30.31,8.0,ESE,3.5,-,N/A,,Partly Cloudy,110,2013-04-26 17:55:00
1:15 PM,68.0,35.6,30,30.30,10.0,ESE,3.5,-,N/A,,Scattered Clouds,120,2013-04-26 18:15:00
1:35 PM,66.2,35.6,32,30.29,8.0,SE,4.6,-,N/A,,Scattered Clouds,130,2013-04-26 18:35:00
2:35 PM,66.2,37.4,35,30.33,9.0,NW,6.9,-,N/A,Thunderstorm,Overcast,310,2013-04-26 19:35:00
2:55 PM,57.2,48.2,72,30.36,3.0,North,5.8,-,0.04,Rain-Thunderstorm,Light Rain,360,2013-04-26 19:55:00
3:15 PM,55.4,51.8,88,30.31,5.0,East,3.5,-,N/A,Rain-Thunderstorm,Light Rain,90,2013-04-26 20:15:00
3:35 PM,57.2,50.0,77,30.29,8.0,NE,5.8,-,N/A,,Scattered Clouds,50,2013-04-26 20:35:00
3:55 PM,59.0,50.0,72,30.27,8.0,ENE,6.9,-,N/A,,Mostly Cloudy,70,2013-04-26 20:55:00
4:15 PM,59.0,50.0,72,30.26,9.0,East,3.5,-,N/A,,Mostly Cloudy,90,2013-04-26 21:15:00
4:35 PM,59.0,50.0,72,30.27,8.0,NE,4.6,-,N/A,,Mostly Cloudy,50,2013-04-26 21:35:00
4:55 PM,59.0,50.0,72,30.28,8.0,NE,5.8,-,N/A,,Mostly Cloudy,40,2013-04-26 21:55:00
5:15 PM,60.8,50.0,68,30.26,9.0,ENE,5.8,-,N/A,,Mostly Cloudy,60,2013-04-26 22:15:00
5:35 PM,60.8,48.2,63,30.25,8.0,East,9.2,-,N/A,,Scattered Clouds,80,2013-04-26 22:35:00
5:55 PM,59.0,48.2,67,30.24,8.0,ENE,6.9,-,N/A,,Mostly Cloudy,70,2013-04-26 22:55:00
6:15 PM,60.8,48.2,63,30.24,8.0,East,5.8,-,N/A,,Mostly Cloudy,90,2013-04-26 23:15:00
6:35 PM,59.0,48.2,67,30.24,9.0,East,5.8,-,N/A,,Mostly Cloudy,80,2013-04-26 23:35:00
6:55 PM,59.0,48.2,67,30.23,8.0,East,4.6,-,N/A,,Mostly Cloudy,80,2013-04-26 23:55:00
7:15 PM,59.0,48.2,67,30.23,9.0,East,4.6,-,N/A,Thunderstorm,Overcast,80,2013-04-27 00:15:00
7:35 PM,59.0,50.0,72,30.24,8.0,NE,3.5,-,N/A,,Overcast,40,2013-04-27 00:35:00
7:55 PM,57.2,50.0,77,30.24,10.0,ENE,4.6,-,N/A,,Overcast,70,2013-04-27 00:55:00
8:15 PM,57.2,50.0,77,30.24,10.0,ENE,4.6,-,N/A,,Mostly Cloudy,60,2013-04-27 01:15:00
8:35 PM,57.2,48.2,72,30.24,10.0,ENE,5.8,-,N/A,,Mostly Cloudy,70,2013-04-27 01:35:00
8:55 PM,57.2,48.2,72,30.24,10.0,East,6.9,-,N/A,,Overcast,80,2013-04-27 01:55:00
9:15 PM,57.2,48.2,72,30.25,10.0,ENE,5.8,-,N/A,,Overcast,60,2013-04-27 02:15:00
9:35 PM,57.2,48.2,72,30.25,9.0,East,9.2,-,N/A,,Overcast,90,2013-04-27 02:35:00
9:55 PM,57.2,48.2,72,30.25,10.0,ENE,8.1,-,N/A,,Overcast,70,2013-04-27 02:55:00
10:15 PM,57.2,48.2,72,30.25,9.0,ENE,6.9,-,N/A,,Overcast,60,2013-04-27 03:15:00
10:35 PM,55.4,48.2,77,30.24,10.0,East,8.1,-,N/A,,Mostly Cloudy,80,2013-04-27 03:35:00
10:55 PM,55.4,48.2,77,30.25,9.0,East,6.9,-,N/A,,Mostly Cloudy,90,2013-04-27 03:55:00
11:15 PM,55.4,48.2,77,30.25,10.0,East,8.1,16.1,N/A,,Overcast,90,2013-04-27 04:15:00
11:35 PM,55.4,48.2,77,30.24,10.0,East,10.4,17.3,N/A,,Overcast,90,2013-04-27 04:35:00
11:55 PM,55.4,48.2,77,30.23,9.0,East,8.1,-,N/A,,Overcast,100,2013-04-27 04:55:00